MMPR

Licenciado Gustavo Díaz Ordaz International Airport

Puerto Vallarta, Mexico
TAF MMPR 210418Z 2106/2212 00000KT P6SM SCT020CB BKN070 TX31/2121Z TN25/2112Z TEMPO 2106/2110 5SM -TSRA FM211800 23010KT P6SM SCT025 SCT080 BKN240 PROB40 2123/2203 4SM TSRA BKN025CB OVC080 FM220700 06006KT P6SM SCT020 BKN080 BKN250
Issued Valid From Valid To
Aug-21 @ 04:18 UTC
(13 hours ago)
Aug-21 @ 06:00 UTC
(12 hours ago)
Aug-22 @ 12:00 UTC
(in 18 hours)
Aug-21 @ 06:00 to Aug-21 @ 18:00
TAF MMPR 210418Z 2106/2212 00000KT P6SM SCT020CB BKN070 TX31/2121Z TN25/2112Z
Visibility Clouds
Greater than 6 miles
  • Scattered at 2,000' AGL
  • Broken at 7,000' AGL
Expired Click to View Aug-21 @ 06:00 to Aug-21 @ 10:00
TEMPO 2106/2110 5SM -TSRA
Visibility Conditions
5 miles
  • Light Thunderstorm
  • Light Rain
From Aug-21 @ 18:00 to Aug-22 @ 07:00
FM211800 23010KT P6SM SCT025 SCT080 BKN240
Wind Visibility Clouds
230° at 10 knots Greater than 6 miles
  • Scattered at 2,500' AGL
  • Scattered at 8,000' AGL
  • Broken at 24,000' AGL
Probable  (Probability 40%) Aug-21 @ 23:00 to Aug-22 @ 03:00
PROB40 2123/2203 4SM TSRA BKN025CB OVC080
Visibility Clouds Conditions
4 miles
  • Broken at 2,500' AGL
  • Overcast at 8,000' AGL
  • Thunderstorm
  • Rain
From Aug-22 @ 07:00 to Aug-22 @ 12:00
FM220700 06006KT P6SM SCT020 BKN080 BKN250
Wind Visibility Clouds
60° at 6 knots Greater than 6 miles
  • Scattered at 2,000' AGL
  • Broken at 8,000' AGL
  • Broken at 25,000' AGL
TAF MMPR 210418Z 2106/2212 00000KT P6SM SCT020CB BKN070 TX31/2121Z TN25/2112Z TEMPO 2106/2110 5SM -TSRA FM211800 23010KT P6SM SCT025 SCT080 BKN240 PROB40 2123/2203 4SM TSRA BKN025CB OVC080 FM220700 06006KT P6SM SCT020 BKN080 BKN250
Issued Aug-21 @ 04:18 UTC
(13 hours ago)
Valid From Aug-21 @ 06:00 UTC
(12 hours ago)
Valid To Aug-22 @ 12:00 UTC
(in 18 hours)
Aug-21 @ 06:00 - Aug-21 @ 18:00
Clouds
  • Scattered at 2,000' AGL
  • Broken at 7,000' AGL
Aug-21 @ 06:00 - Aug-21 @ 10:00
Conditions
  • Light Thunderstorm
  • Light Rain
From Aug-21 @ 18:00 - Aug-22 @ 07:00
Wind Visibility
230° at 10 knots Greater than 6 miles
Clouds
  • Scattered at 2,500' AGL
  • Scattered at 8,000' AGL
  • Broken at 24,000' AGL
Probability 40% Probable Aug-21 @ 23:00 - Aug-22 @ 03:00
Clouds
  • Broken at 2,500' AGL
  • Overcast at 8,000' AGL
Conditions
  • Thunderstorm
  • Rain
From Aug-22 @ 07:00 - Aug-22 @ 12:00
Wind Visibility
60° at 6 knots Greater than 6 miles
Clouds
  • Scattered at 2,000' AGL
  • Broken at 8,000' AGL
  • Broken at 25,000' AGL